»·PEaware :: FDX427 KONT-KSFO

FDX427 :: KONT-KSFO

FLIGHT INFORMATION

Flight Status: Arrived
Operator:
Federal Express
More flights by this operator :: More flights under this callsign
Pilot: Ben F. (13029)
Aircraft: BOEING 757-200
(B752)
More flights by this aircraft type
Origin: KONT Ontario Intl
United States
Destination: KSFO San Francisco Intl
United States
More flights between these airports :: More routes between these airports
Route: +COREZ MAKRS SERFR SERFR3
File this flight plan on PilotEdge
Remarks: PBN / A1B3B4B5C4D4O4 DOF / 190131 REG / N538SB EET / KZOA0029 OPR / FDX PER / D TALT / KLAS RMK / TCAS SIMBRIEF
Altitude:
(Current/Filed)
32,000ft
Speed:
(Current/Filed)
448kts
Departed: 31-Jan-19 02:17 PM
Arrived: 31-Jan-19 03:17 PM
Distance/Time
Traveled:
317nm/1:00
Distance/Time
To Go:
Arrived

Flight Plot

Page will automatically refresh every two minutes.

Flight plan parsing failed; only flown route is shown


Map Options




Map Legend


Flown Route
Filed Route
Departure Airport
Arrival Airport
Navaid (VOR, NDB)
Fix

Horizontal Profiles

Position Reports

Time Latitude Longitude Heading Altitude Ground
Speed
31-Jan-19 13:27 34.052941 -117.615976 180 948ft 0kts
31-Jan-19 13:28 34.052941 -117.615976 180 948ft 0kts
31-Jan-19 13:29 34.052941 -117.615976 180 948ft 0kts
31-Jan-19 13:30 34.052941 -117.615976 180 948ft 0kts
31-Jan-19 13:31 34.052941 -117.615976 180 948ft 0kts
31-Jan-19 13:32 34.052941 -117.615976 180 948ft 0kts
31-Jan-19 13:34 34.052941 -117.615976 180 948ft 0kts
31-Jan-19 13:35 34.052941 -117.615976 180 948ft 0kts
31-Jan-19 13:41 34.052941 -117.615976 180 948ft 0kts
31-Jan-19 13:42 34.052941 -117.615976 180 948ft 0kts
31-Jan-19 13:43 34.052941 -117.615976 180 948ft 0kts
31-Jan-19 13:44 34.052941 -117.615976 180 948ft 0kts
31-Jan-19 13:45 34.052941 -117.615976 180 948ft 0kts
31-Jan-19 13:46 34.052941 -117.615976 180 948ft 0kts
31-Jan-19 13:47 34.052941 -117.615976 180 948ft 0kts
31-Jan-19 13:48 34.052941 -117.615976 180 948ft 0kts
31-Jan-19 13:49 34.052941 -117.615976 180 948ft 0kts
31-Jan-19 13:50 34.052941 -117.615976 180 948ft 0kts
31-Jan-19 13:51 34.052941 -117.615976 180 948ft 0kts
31-Jan-19 13:52 34.052941 -117.615976 180 948ft 0kts
31-Jan-19 13:52 34.052941 -117.615976 180 948ft 0kts
31-Jan-19 13:53 34.052941 -117.615976 180 948ft 0kts
31-Jan-19 13:54 34.052941 -117.615976 180 948ft 0kts
31-Jan-19 13:56 34.052941 -117.615976 180 948ft 0kts
31-Jan-19 13:57 34.052941 -117.615976 180 948ft 0kts
31-Jan-19 13:57 34.052941 -117.615976 180 948ft 0kts
31-Jan-19 13:58 34.052941 -117.615976 180 948ft 0kts
31-Jan-19 13:59 34.052941 -117.615976 180 948ft 0kts
31-Jan-19 14:00 34.052941 -117.615976 180 948ft 0kts
31-Jan-19 14:01 34.052941 -117.615976 180 948ft 0kts
31-Jan-19 14:02 34.052941 -117.615976 180 948ft 0kts
31-Jan-19 14:03 34.052941 -117.615976 180 948ft 0kts
31-Jan-19 14:04 34.052941 -117.615976 180 948ft 0kts
31-Jan-19 14:05 34.052941 -117.615976 180 948ft 0kts
31-Jan-19 14:06 34.052941 -117.615976 180 948ft 0kts
31-Jan-19 14:07 34.053041 -117.615310 46 948ft 0kts
31-Jan-19 14:08 34.053761 -117.614423 61 948ft 6kts
31-Jan-19 14:09 34.053843 -117.611062 89 948ft 16kts
31-Jan-19 14:10 34.053854 -117.604734 88 948ft 19kts
31-Jan-19 14:11 34.053859 -117.598498 90 948ft 18kts
31-Jan-19 14:12 34.053856 -117.592583 90 948ft 17kts
31-Jan-19 14:13 34.053866 -117.586499 89 948ft 22kts
31-Jan-19 14:14 34.054363 -117.582399 4 948ft 10kts
31-Jan-19 14:15 34.054961 -117.583358 271 948ft 24kts
31-Jan-19 14:16 34.054887 -117.622467 269 1566ft 162kts
31-Jan-19 14:17 34.055969 -117.679135 271 3169ft 178kts
31-Jan-19 14:18 34.061632 -117.737494 286 4546ft 200kts
31-Jan-19 14:19 34.079663 -117.802640 307 5875ft 248kts
31-Jan-19 14:20 34.124423 -117.865437 303 8365ft 261kts
31-Jan-19 14:21 34.172160 -117.930661 312 10248ft 298kts
31-Jan-19 14:22 34.224503 -118.006875 303 12300ft 321kts
31-Jan-19 14:23 34.278298 -118.096869 302 14173ft 348kts
31-Jan-19 14:24 34.336405 -118.189116 304 16348ft 358kts
31-Jan-19 14:25 34.396631 -118.284272 304 18411ft 367kts
31-Jan-19 14:26 34.458697 -118.382628 304 20338ft 375kts
31-Jan-19 14:27 34.521412 -118.482293 304 22111ft 383kts
31-Jan-19 14:28 34.586243 -118.585613 304 23790ft 390kts
31-Jan-19 14:29 34.649226 -118.686277 304 25265ft 397kts
31-Jan-19 14:30 34.715651 -118.792747 304 26720ft 404kts
31-Jan-19 14:31 34.806271 -118.873024 328 28298ft 414kts
31-Jan-19 14:32 34.903672 -118.944565 324 29740ft 412kts
31-Jan-19 14:33 35.000256 -119.021465 328 30866ft 418kts
31-Jan-19 14:34 35.097845 -119.100222 329 31944ft 414kts
31-Jan-19 14:35 35.192542 -119.176954 329 31994ft 422kts
31-Jan-19 14:36 35.289841 -119.256122 329 31992ft 421kts
31-Jan-19 14:37 35.386747 -119.335423 327 31992ft 420kts
31-Jan-19 14:38 35.481678 -119.415601 328 31999ft 420kts
31-Jan-19 14:39 35.565483 -119.511817 302 31995ft 431kts
31-Jan-19 14:40 35.607927 -119.649851 294 31984ft 437kts
31-Jan-19 14:41 35.647485 -119.790704 293 31986ft 437kts
31-Jan-19 14:42 35.686647 -119.931598 293 31969ft 438kts
31-Jan-19 14:43 35.725786 -120.073249 293 31957ft 438kts
31-Jan-19 14:44 35.764856 -120.215410 293 31956ft 438kts
31-Jan-19 14:45 35.804595 -120.356813 294 31957ft 437kts
31-Jan-19 14:46 35.844261 -120.498291 293 31957ft 439kts
31-Jan-19 14:47 35.880203 -120.641664 292 31957ft 439kts
31-Jan-19 14:48 35.917450 -120.782172 292 31956ft 439kts
31-Jan-19 14:49 35.955546 -120.925400 291 31957ft 439kts
31-Jan-19 14:50 35.992416 -121.067564 293 31506ft 430kts
31-Jan-19 14:51 36.028050 -121.202684 295 29867ft 407kts
31-Jan-19 14:52 36.065326 -121.331892 307 28213ft 393kts
31-Jan-19 14:53 36.140197 -121.415924 331 26659ft 373kts
31-Jan-19 14:54 36.225600 -121.484078 333 25076ft 369kts
31-Jan-19 14:55 36.311721 -121.551693 333 23493ft 367kts
31-Jan-19 14:56 36.397330 -121.614956 335 21968ft 363kts
31-Jan-19 14:57 36.483152 -121.680480 333 20408ft 362kts
31-Jan-19 14:58 36.567377 -121.746769 332 18888ft 359kts
31-Jan-19 14:59 36.649868 -121.811411 332 17410ft 355kts
31-Jan-19 15:00 36.732846 -121.876400 332 15923ft 350kts
31-Jan-19 15:01 36.823320 -121.909507 350 14472ft 338kts
31-Jan-19 15:02 36.913948 -121.934901 350 13046ft 333kts
31-Jan-19 15:03 37.002728 -121.964561 345 11684ft 331kts
31-Jan-19 15:04 37.084888 -121.996557 345 10346ft 289kts
31-Jan-19 15:05 37.158303 -122.025158 345 9073ft 278kts
31-Jan-19 15:06 37.229837 -122.053089 345 7917ft 264kts
31-Jan-19 15:07 37.300581 -122.080765 345 7720ft 270kts
31-Jan-19 15:08 37.370904 -122.108397 345 6226ft 261kts
31-Jan-19 15:09 37.424116 -122.126853 347 5056ft 247kts
31-Jan-19 15:10 37.484315 -122.146981 345 3585ft 204kts
31-Jan-19 15:11 37.533897 -122.163565 342 2595ft 173kts
31-Jan-19 15:12 37.561329 -122.209399 298 1835ft 166kts
31-Jan-19 15:13 37.576156 -122.263611 280 1634ft 158kts
31-Jan-19 15:14 37.593122 -122.308760 294 868ft 145kts
31-Jan-19 15:15 37.610802 -122.350751 298 253ft 134kts
31-Jan-19 15:16 37.621584 -122.375937 342 26ft 11kts
31-Jan-19 15:17 37.622662 -122.375526 334 24ft 5kts
31-Jan-19 15:18 37.623735 -122.377754 297 26ft 10kts
31-Jan-19 15:19 37.626800 -122.385078 297 21ft 26kts
31-Jan-19 15:20 37.629981 -122.392066 336 19ft 17kts
31-Jan-19 15:21 37.633351 -122.391709 21 18ft 13kts
31-Jan-19 15:22 37.635759 -122.388363 332 18ft 15kts
31-Jan-19 15:23 37.636675 -122.387902 63 17ft 0kts

Navigation Log

Ident Type
Flight plan parsing failed, navigation log unavailable